createdAt,value
2019-05-16T00:00:58.736Z,4.38
2019-05-16T00:06:05.269Z,5.03
2019-05-16T00:11:14.158Z,4.46
2019-05-16T00:16:29.911Z,4.65
2019-05-16T00:21:28.756Z,4.29
2019-05-16T00:26:38.875Z,4.72
2019-05-16T00:31:48.259Z,4.57
2019-05-16T00:36:54.549Z,4.74
2019-05-16T00:42:04.535Z,4.76
2019-05-16T00:47:13.504Z,4.07
2019-05-16T00:52:22.455Z,4.72
2019-05-16T00:57:31.314Z,4.23
2019-05-16T01:02:40.359Z,4.17
2019-05-16T01:07:49.213Z,4.11
2019-05-16T01:12:59.150Z,3.97
2019-05-16T01:18:08.211Z,3.80
2019-05-16T01:23:18.156Z,3.92
2019-05-16T01:28:25.427Z,3.78
2019-05-16T01:33:34.423Z,3.99
2019-05-16T01:38:43.288Z,3.56
2019-05-16T01:43:52.306Z,4.05
2019-05-16T01:49:01.250Z,3.48
2019-05-16T01:54:10.174Z,3.44
2019-05-16T01:59:19.031Z,3.96
2019-05-16T02:04:28.713Z,3.48
2019-05-16T02:09:38.255Z,3.37
2019-05-16T02:14:44.739Z,3.41
2019-05-16T02:19:53.712Z,3.31
2019-05-16T02:25:02.591Z,3.88
2019-05-16T02:30:12.520Z,3.62
2019-05-16T02:35:21.074Z,2.89
2019-05-16T02:40:31.019Z,3.16
2019-05-16T02:45:36.759Z,3.74
2019-05-16T02:50:45.575Z,3.27
2019-05-16T02:55:55.679Z,3.32
2019-05-16T03:00:54.588Z,3.17
2019-05-16T03:06:03.495Z,3.34
2019-05-16T03:16:21.987Z,3.11
2019-05-16T03:21:27.070Z,2.53
2019-05-16T03:26:40.904Z,2.56
2019-05-16T03:31:43.682Z,3.14
2019-05-16T03:36:46.628Z,2.73
2019-05-16T03:41:55.525Z,3.01
2019-05-16T03:47:04.441Z,2.49
2019-05-16T03:52:13.343Z,2.66
2019-05-16T03:57:22.243Z,2.77
2019-05-16T04:02:31.165Z,2.37
2019-05-16T04:07:41.488Z,2.45
2019-05-16T04:12:51.153Z,2.52
2019-05-16T04:17:56.928Z,2.25
2019-05-16T04:23:06.874Z,2.67
2019-05-16T04:28:15.941Z,2.50
2019-05-16T04:33:24.856Z,2.62
2019-05-16T04:38:40.814Z,2.36
2019-05-16T04:43:42.267Z,3.11
2019-05-16T04:48:51.297Z,2.99
2019-05-16T04:54:02.474Z,2.53
2019-05-16T04:59:15.665Z,3.06
2019-05-16T05:04:16.814Z,3.56
2019-05-16T05:09:25.784Z,3.59
2019-05-16T05:14:34.706Z,2.98
2019-05-16T05:19:43.679Z,2.73
2019-05-16T05:24:52.681Z,2.48
2019-05-16T05:30:01.566Z,2.13
2019-05-16T05:35:10.790Z,2.44
2019-05-16T05:40:20.057Z,2.57
2019-05-16T05:45:27.384Z,2.18
2019-05-16T05:50:36.280Z,2.58
2019-05-16T05:55:45.140Z,2.29
2019-05-16T06:00:54.038Z,1.85
2019-05-16T06:06:02.912Z,2.21
2019-05-16T06:11:11.787Z,2.12
2019-05-16T06:16:20.720Z,1.81
2019-05-16T06:21:33.234Z,2.25
2019-05-16T06:26:39.792Z,2.07
2019-05-16T06:31:46.296Z,1.82
2019-05-16T06:36:55.205Z,2.05
2019-05-16T06:42:04.047Z,1.66
2019-05-16T06:47:19.614Z,1.88
2019-05-16T06:52:21.367Z,1.71
2019-05-16T06:57:30.385Z,2.08
2019-05-16T07:02:40.813Z,3.36
2019-05-16T07:07:47.475Z,3.50
2019-05-16T07:12:56.318Z,2.62
2019-05-16T07:18:05.147Z,2.33
2019-05-16T07:23:14.046Z,1.67
2019-05-16T07:28:22.926Z,1.86
2019-05-16T07:33:31.904Z,1.59
2019-05-16T07:38:40.753Z,1.39
2019-05-16T07:43:50.623Z,1.75
2019-05-16T07:49:00.940Z,1.46
2019-05-16T07:54:06.419Z,1.57
2019-05-16T07:59:15.246Z,1.59
2019-05-16T08:04:24.169Z,1.32
2019-05-16T08:09:33.097Z,1.42
2019-05-16T08:14:41.950Z,1.38
2019-05-16T08:19:51.070Z,1.38
2019-05-16T08:25:00.301Z,1.33
2019-05-16T08:30:10.412Z,1.41
2019-05-16T08:35:16.496Z,1.28
2019-05-16T08:40:25.379Z,1.46
2019-05-16T08:45:34.259Z,1.36
2019-05-16T08:50:50.350Z,1.39
2019-05-16T08:55:51.555Z,1.60
2019-05-16T09:01:02.254Z,1.25
2019-05-16T09:06:11.594Z,1.51
2019-05-16T09:11:33.853Z,1.32
2019-05-16T09:16:27.632Z,1.10
2019-05-16T09:21:34.355Z,1.19
2019-05-16T09:26:43.217Z,1.27
2019-05-16T09:32:12.627Z,9.36
2019-05-16T09:36:58.081Z,1.36
2019-05-16T09:42:01.879Z,1.64
2019-05-16T09:47:10.865Z,1.73
2019-05-16T09:52:19.707Z,1.53
2019-05-16T09:57:28.599Z,1.60
2019-05-16T10:02:37.436Z,1.49
2019-05-16T10:07:47.009Z,1.42
2019-05-16T10:12:54.649Z,1.61
2019-05-16T10:18:03.503Z,1.46
2019-05-16T10:23:14.549Z,1.19
2019-05-16T10:28:20.851Z,1.07
2019-05-16T10:33:29.711Z,1.25
2019-05-16T10:38:38.586Z,1.22
2019-05-16T10:43:47.587Z,1.12
2019-05-16T10:48:57.762Z,0.97
2019-05-16T10:54:09.764Z,1.06
2019-05-16T11:04:29.248Z,1.25
2019-05-16T11:09:29.915Z,0.97
2019-05-16T11:14:38.794Z,1.11
2019-05-16T11:19:47.625Z,0.97
2019-05-16T11:24:56.690Z,1.19
2019-05-16T11:30:07.454Z,1.06
2019-05-16T11:35:13.797Z,0.86
2019-05-16T11:40:22.650Z,0.80
2019-05-16T11:45:31.470Z,0.93
2019-05-16T11:50:40.419Z,1.02
2019-05-16T11:55:55.579Z,0.92
2019-05-16T12:00:57.735Z,1.10
2019-05-16T12:06:10.244Z,1.21
2019-05-16T12:11:17.667Z,1.07
2019-05-16T12:16:23.417Z,1.45
2019-05-16T12:21:32.335Z,1.39
2019-05-16T12:26:41.179Z,1.33
2019-05-16T12:31:58.592Z,1.29
2019-05-16T12:36:58.443Z,1.18
2019-05-16T12:42:08.428Z,1.40
2019-05-16T12:47:15.771Z,1.31
2019-05-16T12:52:26.939Z,1.41
2019-05-16T12:57:33.041Z,1.25
2019-05-16T13:02:41.928Z,1.29
2019-05-16T13:07:50.768Z,1.29
2019-05-16T13:12:59.659Z,1.46
2019-05-16T13:18:08.551Z,1.49
2019-05-16T13:23:18.070Z,1.37
2019-05-16T13:28:26.153Z,1.57
2019-05-16T13:33:36.759Z,1.80
2019-05-16T13:38:43.429Z,1.68
2019-05-16T13:43:52.292Z,1.89
2019-05-16T13:49:01.232Z,1.78
2019-05-16T13:54:10.066Z,1.77
2019-05-16T13:59:18.885Z,1.53
2019-05-16T14:04:27.733Z,1.61
2019-05-16T14:09:37.820Z,1.88
2019-05-16T14:14:47.639Z,1.74
2019-05-16T14:19:53.432Z,2.05
2019-05-16T14:25:02.347Z,2.01
2019-05-16T14:30:11.157Z,2.11
2019-05-16T14:35:20.025Z,1.96
2019-05-16T14:40:28.911Z,1.97
2019-05-16T14:45:37.746Z,2.19
2019-05-16T14:50:47.191Z,1.94
2019-05-16T14:55:57.442Z,2.23
2019-05-16T15:01:03.454Z,2.07
2019-05-16T15:06:12.312Z,2.25
2019-05-16T15:11:21.192Z,2.49
2019-05-16T15:16:30.042Z,2.79
2019-05-16T15:21:38.873Z,2.79
2019-05-16T15:26:47.756Z,2.76
2019-05-16T15:31:57.341Z,2.83
2019-05-16T15:37:07.609Z,2.38
2019-05-16T15:42:13.323Z,2.33
2019-05-16T15:47:22.202Z,2.20
2019-05-16T15:52:31.051Z,2.66
2019-05-16T15:57:39.921Z,3.53
2019-05-16T16:02:48.740Z,3.87
2019-05-16T16:07:57.617Z,3.17
2019-05-16T16:13:06.836Z,3.39
2019-05-16T16:18:17.372Z,2.95
2019-05-16T16:23:23.202Z,2.94
2019-05-16T16:28:32.049Z,3.03
2019-05-16T16:33:40.931Z,3.75
2019-05-16T16:38:49.815Z,3.19
2019-05-16T16:43:58.655Z,3.64
2019-05-16T16:49:07.674Z,3.47
2019-05-16T16:54:17.083Z,3.69
2019-05-16T16:59:27.834Z,3.90
2019-05-16T17:04:33.232Z,3.90
2019-05-16T17:09:42.173Z,4.05
2019-05-16T17:14:50.995Z,4.61
2019-05-16T17:19:59.864Z,4.42
2019-05-16T17:25:08.731Z,4.63
2019-05-16T17:30:17.699Z,4.85
2019-05-16T17:35:26.971Z,5.43
2019-05-16T17:40:37.477Z,4.75
2019-05-16T17:45:43.325Z,4.47
2019-05-16T17:50:52.264Z,5.59
2019-05-16T17:56:01.104Z,6.56
2019-05-16T18:01:09.950Z,5.77
2019-05-16T18:06:18.801Z,6.26
2019-05-16T18:11:27.667Z,6.78
2019-05-16T18:16:51.740Z,7.52
2019-05-16T18:21:46.402Z,6.77
2019-05-16T18:26:53.409Z,5.91
2019-05-16T18:32:02.348Z,4.70
2019-05-16T18:37:11.188Z,4.21
2019-05-16T18:42:20.040Z,3.87
2019-05-16T18:47:28.889Z,3.34
2019-05-16T18:52:37.812Z,3.54
2019-05-16T18:57:47.252Z,2.98
2019-05-16T19:02:56.401Z,2.75
2019-05-16T19:08:03.442Z,2.98
2019-05-16T19:13:12.549Z,2.89
2019-05-16T19:18:21.215Z,2.94
2019-05-16T19:23:30.069Z,3.13
2019-05-16T19:28:38.917Z,2.84
2019-05-16T19:33:48.902Z,3.00
2019-05-16T19:38:57.073Z,2.42
2019-05-16T19:44:06.642Z,2.38
2019-05-16T19:49:13.059Z,3.47
2019-05-16T19:54:21.970Z,2.44
2019-05-16T19:59:30.809Z,2.14
2019-05-16T20:04:39.699Z,2.18
2019-05-16T20:09:48.533Z,2.17
2019-05-16T20:15:07.552Z,2.34
2019-05-16T20:20:05.812Z,2.09
2019-05-16T20:25:16.419Z,2.07
2019-05-16T20:30:23.154Z,2.02
2019-05-16T20:35:32.024Z,2.17
2019-05-16T20:40:40.916Z,1.95
2019-05-16T20:45:49.755Z,1.70
2019-05-16T20:50:58.613Z,1.71
2019-05-16T20:56:07.540Z,1.94
2019-05-16T21:01:17.326Z,1.72
2019-05-16T21:06:26.446Z,1.93
2019-05-16T21:11:33.241Z,2.23
2019-05-16T21:16:42.111Z,1.78
2019-05-16T21:21:50.968Z,1.97
2019-05-16T21:26:59.864Z,1.88
2019-05-16T21:32:08.725Z,2.20
2019-05-16T21:37:20.332Z,1.81
2019-05-16T21:42:27.066Z,1.86
2019-05-16T21:47:36.762Z,1.91
2019-05-16T21:52:42.828Z,2.58
2019-05-16T21:57:51.644Z,2.33
2019-05-16T22:03:00.508Z,2.56
2019-05-16T22:08:11.757Z,2.53
2019-05-16T22:13:17.889Z,2.87
2019-05-16T22:18:26.755Z,3.11
2019-05-16T22:23:37.365Z,3.54
2019-05-16T22:28:49.125Z,3.54
2019-05-16T22:33:52.447Z,3.57
2019-05-16T22:39:02.394Z,3.96
2019-05-16T22:44:02.455Z,4.59
2019-05-16T22:49:02.462Z,4.76
2019-05-16T22:54:01.502Z,4.05
2019-05-16T22:59:10.467Z,3.98
2019-05-16T23:04:19.530Z,4.74
2019-05-16T23:09:28.534Z,4.68
2019-05-16T23:14:37.446Z,4.85
2019-05-16T23:19:47.421Z,5.29
2019-05-16T23:24:57.114Z,6.41
2019-05-16T23:29:56.795Z,6.19
2019-05-16T23:35:06.644Z,5.65
2019-05-16T23:40:12.788Z,5.81
2019-05-16T23:45:21.782Z,6.65
2019-05-16T23:50:30.765Z,7.24
2019-05-16T23:55:39.616Z,8.55
